Time;durP1;ratioP1;P1;durP2;ratioP2;P2;SDS_P1;SDS_P2;PMS_P1;PMS_P2;Temp;Humidity;BMP_temperature;BMP_pressure;BME280_temperature;BME280_humidity;BME280_pressure;Samples;Min_cycle;Max_cycle;Signal;HPM_P1;HPM_P2
2021/03/19 00:00:19;;;;;;;16.05;5.88;;;9.10;99.90;;;;;;5001100;28;20050;-87
2021/03/19 00:02:46;;;;;;;16.40;6.13;;;9.10;99.90;;;;;;5004840;28;20152;-88
2021/03/19 00:05:15;;;;;;;14.27;5.63;;;9.10;99.90;;;;;;5005442;28;20046;-88
2021/03/19 00:07:48;;;;;;;16.67;6.28;;;9.00;99.90;;;;;;5009550;28;20070;-88
2021/03/19 00:10:21;;;;;;;16.63;6.47;;;9.10;99.90;;;;;;5005797;28;20057;-88
2021/03/19 00:12:49;;;;;;;13.85;5.47;;;9.10;99.90;;;;;;5017985;28;20116;-88
2021/03/19 00:15:18;;;;;;;15.38;5.35;;;9.10;99.90;;;;;;5011217;28;20046;-88
2021/03/19 00:17:47;;;;;;;13.65;5.50;;;9.10;99.90;;;;;;5005454;28;20042;-88
2021/03/19 00:20:28;;;;;;;12.05;5.93;;;9.10;99.90;;;;;;5004927;28;20038;-88
2021/03/19 00:22:55;;;;;;;12.00;5.55;;;9.10;99.90;;;;;;5005436;28;20050;-88
2021/03/19 00:25:22;;;;;;;13.45;5.88;;;9.10;99.90;;;;;;5007495;28;20045;-87
2021/03/19 00:27:49;;;;;;;10.98;5.28;;;9.10;99.90;;;;;;5009973;28;20124;-87
2021/03/19 00:30:16;;;;;;;12.70;5.95;;;9.10;99.90;;;;;;5006845;28;20052;-87
2021/03/19 00:32:44;;;;;;;10.50;5.20;;;9.10;99.90;;;;;;5009603;28;20097;-88
2021/03/19 00:35:12;;;;;;;11.68;5.68;;;9.00;99.90;;;;;;5004372;28;20482;-87
2021/03/19 00:37:38;;;;;;;13.43;6.40;;;9.10;99.90;;;;;;5007316;28;20049;-88
2021/03/19 00:40:07;;;;;;;10.02;5.57;;;9.10;99.90;;;;;;5006692;28;20514;-87
2021/03/19 00:42:34;;;;;;;19.63;6.60;;;9.10;99.90;;;;;;5007039;28;20479;-89
2021/03/19 00:45:03;;;;;;;10.00;5.35;;;9.10;99.90;;;;;;5005549;28;20049;-88
2021/03/19 00:47:30;;;;;;;11.70;5.43;;;9.10;99.90;;;;;;5009163;28;20053;-88
2021/03/19 00:49:59;;;;;;;10.48;5.45;;;9.10;99.90;;;;;;4999992;28;20046;-87
2021/03/19 00:52:26;;;;;;;15.00;5.72;;;9.10;99.90;;;;;;4999312;28;20104;-88
2021/03/19 00:54:53;;;;;;;11.18;6.38;;;9.10;99.90;;;;;;5007728;28;20046;-88
2021/03/19 00:57:20;;;;;;;12.68;6.50;;;9.10;99.90;;;;;;5003824;28;20045;-87
2021/03/19 00:59:47;;;;;;;10.23;5.78;;;9.10;99.90;;;;;;5005103;28;20081;-88
2021/03/19 01:02:13;;;;;;;12.68;5.93;;;9.10;99.90;;;;;;5005068;28;20046;-88
2021/03/19 01:04:40;;;;;;;13.60;5.90;;;9.00;99.90;;;;;;5008417;28;20050;-87
2021/03/19 01:07:07;;;;;;;11.20;5.65;;;9.00;99.90;;;;;;5010380;28;20378;-87
2021/03/19 01:09:34;;;;;;;13.88;5.78;;;9.00;99.90;;;;;;5012314;28;20052;-87
2021/03/19 01:12:00;;;;;;;12.20;5.75;;;9.00;99.90;;;;;;5011645;28;20056;-88
2021/03/19 01:14:27;;;;;;;13.57;6.30;;;9.00;99.90;;;;;;5016781;28;20038;-87
2021/03/19 01:16:54;;;;;;;13.55;6.50;;;8.90;99.90;;;;;;5014386;28;20566;-88
2021/03/19 01:19:21;;;;;;;12.82;6.35;;;8.90;99.90;;;;;;5003979;28;20126;-87
2021/03/19 01:21:47;;;;;;;15.38;6.43;;;8.90;99.90;;;;;;5013089;28;20482;-87
2021/03/19 01:24:14;;;;;;;12.85;6.25;;;8.90;99.90;;;;;;5030009;28;20049;-87
2021/03/19 01:26:41;;;;;;;12.73;6.68;;;8.90;99.90;;;;;;5015908;28;20103;-87
2021/03/19 01:29:08;;;;;;;14.38;6.07;;;8.90;99.90;;;;;;5015544;28;20045;-87
2021/03/19 01:31:34;;;;;;;9.77;6.22;;;8.90;99.90;;;;;;5014018;28;20053;-86
2021/03/19 01:34:01;;;;;;;12.60;6.30;;;8.90;99.90;;;;;;5041381;28;20175;-87
2021/03/19 01:36:32;;;;;;;15.75;7.85;;;8.80;99.90;;;;;;5018308;28;20052;-87
2021/03/19 01:38:59;;;;;;;16.25;7.40;;;8.80;99.90;;;;;;5016183;28;20053;-88
2021/03/19 01:41:26;;;;;;;15.35;7.95;;;8.80;99.90;;;;;;5013975;28;20053;-88
2021/03/19 01:43:56;;;;;;;14.18;8.13;;;8.80;99.90;;;;;;5015618;28;20057;-88
2021/03/19 01:47:00;;;;;;;17.15;8.75;;;8.80;99.90;;;;;;5013140;28;20046;-88
2021/03/19 01:50:05;;;;;;;14.55;8.98;;;8.80;99.90;;;;;;5031531;28;20052;-88
2021/03/19 01:53:09;;;;;;;15.80;8.75;;;8.70;99.90;;;;;;5021406;28;20057;-87
2021/03/19 01:56:13;;;;;;;13.27;9.80;;;8.70;99.90;;;;;;5029730;28;20487;-88
2021/03/19 01:59:28;;;;;;;13.65;9.13;;;8.70;99.90;;;;;;5025727;28;20041;-88
2021/03/19 02:02:32;;;;;;;14.82;10.68;;;8.70;99.90;;;;;;4922479;29;20183;-88
2021/03/19 02:05:37;;;;;;;18.05;10.13;;;8.70;99.90;;;;;;4946156;28;20051;-88
2021/03/19 02:08:40;;;;;;;17.50;10.70;;;8.70;99.90;;;;;;4948748;28;20039;-88
2021/03/19 02:11:44;;;;;;;16.45;10.35;;;8.70;99.90;;;;;;4937076;28;20044;-88
2021/03/19 02:14:48;;;;;;;14.77;11.38;;;8.60;99.90;;;;;;4940359;28;20043;-88
2021/03/19 02:17:51;;;;;;;20.60;10.82;;;8.60;99.90;;;;;;4947568;28;20415;-87
2021/03/19 02:20:55;;;;;;;18.05;11.05;;;8.60;99.90;;;;;;4932427;28;20043;-88
2021/03/19 02:23:59;;;;;;;20.17;10.80;;;8.50;99.90;;;;;;4932264;28;20054;-88
2021/03/19 02:27:03;;;;;;;18.17;10.35;;;8.50;99.90;;;;;;4948252;28;20050;-88
2021/03/19 02:30:06;;;;;;;15.27;11.00;;;8.50;99.90;;;;;;4935718;29;20062;-88
2021/03/19 02:32:33;;;;;;;15.30;10.77;;;8.40;99.90;;;;;;4941928;28;20051;-88
2021/03/19 02:35:14;;;;;;;17.50;10.82;;;8.40;99.90;;;;;;4952856;28;20178;-88
2021/03/19 02:37:41;;;;;;;15.75;10.82;;;8.40;99.90;;;;;;4947461;28;20053;-88
2021/03/19 02:40:12;;;;;;;22.63;11.55;;;8.40;99.90;;;;;;5013187;28;20042;-87
2021/03/19 02:42:39;;;;;;;16.85;11.68;;;8.40;99.90;;;;;;5007755;28;20073;-88
2021/03/19 02:45:12;;;;;;;17.63;11.50;;;8.50;99.90;;;;;;5006913;28;20046;-88
2021/03/19 02:47:38;;;;;;;16.00;10.82;;;8.50;99.90;;;;;;4990867;28;20108;-88
2021/03/19 02:50:07;;;;;;;17.67;11.18;;;8.50;99.90;;;;;;4990761;28;20072;-88
2021/03/19 02:52:37;;;;;;;19.67;11.93;;;8.50;99.90;;;;;;4992257;28;20400;-87
2021/03/19 02:55:07;;;;;;;19.20;11.57;;;8.60;99.90;;;;;;4993948;28;20057;-88
2021/03/19 02:57:34;;;;;;;18.00;11.73;;;8.50;99.90;;;;;;4990449;28;20045;-88
2021/03/19 03:00:01;;;;;;;16.33;10.93;;;8.60;99.90;;;;;;4995414;28;20050;-88
2021/03/19 03:02:28;;;;;;;18.17;11.10;;;8.60;99.90;;;;;;4990459;28;20061;-88
2021/03/19 03:04:55;;;;;;;15.02;10.30;;;8.60;99.90;;;;;;5008203;28;20046;-88
2021/03/19 03:07:29;;;;;;;13.85;9.98;;;8.60;99.90;;;;;;4994071;28;20037;-88
2021/03/19 03:09:56;;;;;;;18.35;10.80;;;8.60;99.90;;;;;;5010270;28;20068;-88
2021/03/19 03:12:24;;;;;;;17.75;10.75;;;8.60;99.90;;;;;;4986093;28;20441;-88
2021/03/19 03:14:51;;;;;;;14.85;10.02;;;8.60;99.90;;;;;;4990671;28;20491;-87
2021/03/19 03:17:18;;;;;;;14.82;10.07;;;8.60;99.90;;;;;;4993498;28;20038;-88
2021/03/19 03:19:45;;;;;;;18.85;10.77;;;8.60;99.90;;;;;;4993617;28;20224;-88
2021/03/19 03:22:12;;;;;;;20.30;10.85;;;8.60;99.90;;;;;;4992178;28;20052;-88
2021/03/19 03:24:39;;;;;;;17.55;10.65;;;8.60;99.90;;;;;;4990793;28;20403;-87
2021/03/19 03:27:08;;;;;;;17.73;9.65;;;8.60;99.90;;;;;;4987977;28;20046;-87
2021/03/19 03:29:36;;;;;;;20.67;11.00;;;8.70;99.90;;;;;;4994300;28;20049;-88
2021/03/19 03:32:04;;;;;;;17.33;9.43;;;8.70;99.90;;;;;;4992254;28;20100;-88
2021/03/19 03:34:32;;;;;;;19.42;8.95;;;8.70;99.90;;;;;;4991096;28;20468;-88
2021/03/19 03:37:00;;;;;;;13.80;9.57;;;8.70;99.90;;;;;;4995178;28;20042;-88
2021/03/19 03:39:30;;;;;;;15.70;8.88;;;8.70;99.90;;;;;;4989383;28;20042;-87
2021/03/19 03:41:59;;;;;;;13.77;8.98;;;8.80;99.90;;;;;;4994464;28;20069;-87
2021/03/19 03:44:26;;;;;;;16.33;9.05;;;8.80;99.90;;;;;;4989266;28;20038;-88
2021/03/19 03:46:55;;;;;;;16.20;8.60;;;8.80;99.90;;;;;;4993778;28;20475;-88
2021/03/19 03:49:22;;;;;;;14.00;8.82;;;8.80;99.90;;;;;;4992835;28;20041;-87
2021/03/19 03:51:48;;;;;;;14.50;8.82;;;8.80;99.90;;;;;;5003093;28;20065;-87
2021/03/19 03:54:15;;;;;;;16.58;8.30;;;8.70;99.90;;;;;;4991943;28;20042;-87
2021/03/19 03:56:42;;;;;;;17.27;9.68;;;8.80;99.90;;;;;;5001122;28;20050;-88
2021/03/19 03:59:09;;;;;;;19.65;9.40;;;8.80;99.90;;;;;;4993367;28;20392;-87
2021/03/19 04:01:41;;;;;;;27.05;10.25;;;8.70;99.90;;;;;;4993827;28;20467;-87
2021/03/19 04:04:14;;;;;;;19.38;8.68;;;8.70;99.90;;;;;;5006489;28;20057;-87
2021/03/19 04:06:40;;;;;;;13.30;8.43;;;8.70;99.90;;;;;;5007983;28;20045;-87
2021/03/19 04:09:07;;;;;;;24.50;9.38;;;8.80;99.90;;;;;;4990232;28;20050;-87
2021/03/19 04:11:33;;;;;;;21.45;8.48;;;8.80;99.90;;;;;;5004490;28;20049;-87
2021/03/19 04:14:00;;;;;;;15.38;9.02;;;8.80;99.90;;;;;;4990916;28;20678;-87
2021/03/19 04:16:27;;;;;;;16.15;8.82;;;8.80;99.90;;;;;;4993398;28;20053;-87
2021/03/19 04:18:54;;;;;;;13.88;8.40;;;8.80;99.90;;;;;;4999303;28;20056;-87
2021/03/19 04:21:21;;;;;;;18.30;9.57;;;8.80;99.90;;;;;;4997180;28;20057;-87
2021/03/19 04:23:49;;;;;;;15.88;8.68;;;8.80;99.90;;;;;;4999514;28;20057;-88
2021/03/19 04:26:30;;;;;;;17.20;9.27;;;8.80;99.90;;;;;;4997401;28;20095;-88
2021/03/19 04:28:57;;;;;;;19.35;9.02;;;8.80;99.90;;;;;;4992402;28;20034;-88
2021/03/19 04:31:25;;;;;;;19.17;8.73;;;8.80;99.90;;;;;;4991798;28;20054;-88
2021/03/19 04:33:52;;;;;;;16.77;9.30;;;8.80;99.90;;;;;;4995888;28;20042;-87
2021/03/19 04:36:46;;;;;;;18.30;8.57;;;8.80;99.90;;;;;;4990406;28;20128;-88
2021/03/19 04:39:21;;;;;;;17.38;8.63;;;8.80;99.90;;;;;;4992774;28;20082;-88
2021/03/19 04:41:51;;;;;;;20.27;9.23;;;8.80;99.90;;;;;;4989059;28;20054;-88
2021/03/19 04:44:18;;;;;;;20.10;9.35;;;8.80;99.90;;;;;;4987864;28;20049;-87
2021/03/19 04:46:45;;;;;;;22.65;8.90;;;8.80;99.90;;;;;;4991488;28;20381;-87
2021/03/19 04:49:11;;;;;;;20.65;8.60;;;8.80;99.90;;;;;;4990688;28;20046;-87
2021/03/19 04:51:38;;;;;;;19.17;9.38;;;8.80;99.90;;;;;;4994264;28;20128;-88
2021/03/19 04:54:06;;;;;;;15.80;8.13;;;8.80;99.90;;;;;;4990894;28;20046;-88
2021/03/19 04:56:33;;;;;;;20.70;9.37;;;8.80;99.90;;;;;;4988822;28;20085;-88
2021/03/19 04:59:00;;;;;;;18.80;8.10;;;8.80;99.90;;;;;;4985470;28;20050;-88
2021/03/19 05:01:27;;;;;;;15.00;8.68;;;8.80;99.90;;;;;;4991129;28;20053;-88
2021/03/19 05:03:54;;;;;;;17.48;8.35;;;8.80;99.90;;;;;;4996500;28;20072;-87
2021/03/19 05:06:21;;;;;;;12.02;7.35;;;8.80;99.90;;;;;;4997922;28;20045;-88
2021/03/19 05:08:48;;;;;;;18.45;7.75;;;8.90;99.90;;;;;;4999024;28;20050;-87
2021/03/19 05:11:17;;;;;;;20.30;7.50;;;8.90;99.90;;;;;;5013387;28;20038;-87
2021/03/19 05:13:45;;;;;;;18.05;7.30;;;8.90;99.90;;;;;;5013425;28;20042;-88
2021/03/19 05:16:12;;;;;;;14.93;6.60;;;9.00;99.90;;;;;;5010612;28;20073;-88
2021/03/19 05:18:39;;;;;;;19.88;7.72;;;9.00;99.90;;;;;;5007027;28;20092;-89
2021/03/19 05:21:06;;;;;;;21.20;7.03;;;9.00;99.90;;;;;;5007825;28;20096;-87
2021/03/19 05:23:35;;;;;;;23.67;6.93;;;9.00;99.90;;;;;;5009675;28;20427;-87
2021/03/19 05:26:03;;;;;;;15.57;6.60;;;9.00;99.90;;;;;;5008647;28;20145;-88
2021/03/19 05:28:29;;;;;;;17.20;7.50;;;9.10;99.90;;;;;;5008625;28;20052;-88
2021/03/19 05:30:57;;;;;;;14.82;6.18;;;9.10;99.90;;;;;;5011371;28;20084;-88
2021/03/19 05:33:26;;;;;;;14.23;6.80;;;9.10;99.90;;;;;;5005329;28;20137;-88
2021/03/19 05:35:53;;;;;;;;;;;9.10;99.90;;;;;;5005427;28;20056;-88
2021/03/19 05:38:20;;;;;;;13.50;6.28;;;9.10;99.90;;;;;;5003306;28;19925;-90
2021/03/19 05:40:50;;;;;;;17.25;6.50;;;9.20;99.90;;;;;;4999903;28;20050;-87
2021/03/19 05:43:23;;;;;;;19.48;7.22;;;9.20;99.90;;;;;;5005101;28;20046;-88
2021/03/19 05:45:53;;;;;;;19.42;7.45;;;9.10;99.90;;;;;;5000643;28;20129;-88
2021/03/19 05:48:21;;;;;;;21.75;7.50;;;9.20;99.90;;;;;;5004184;28;20056;-88
2021/03/19 05:50:49;;;;;;;14.23;6.53;;;9.20;99.90;;;;;;5006498;28;20145;-88
2021/03/19 05:53:19;;;;;;;23.92;6.80;;;9.20;99.90;;;;;;4994704;28;20508;-88
2021/03/19 05:55:46;;;;;;;17.77;6.78;;;9.20;99.90;;;;;;5007246;28;20054;-89
2021/03/19 05:58:39;;;;;;;20.52;6.65;;;9.20;99.90;;;;;;5000415;28;20368;-88
2021/03/19 06:01:05;;;;;;;16.73;6.20;;;9.30;99.90;;;;;;5006138;28;20049;-87
2021/03/19 06:03:32;;;;;;;17.08;7.10;;;9.30;99.90;;;;;;5011117;28;20398;-87
2021/03/19 06:06:03;;;;;;;21.50;6.95;;;9.30;99.90;;;;;;5004909;28;20137;-88
2021/03/19 06:08:46;;;;;;;15.48;7.15;;;9.30;99.90;;;;;;5007365;28;20049;-88
2021/03/19 06:11:26;;;;;;;24.02;7.53;;;9.30;99.90;;;;;;4995473;28;20125;-88
2021/03/19 06:14:13;;;;;;;17.70;6.65;;;9.40;99.90;;;;;;4977374;28;20089;-87
2021/03/19 06:16:47;;;;;;;17.23;6.63;;;9.40;99.90;;;;;;4981337;28;20069;-88
2021/03/19 06:19:42;;;;;;;21.23;6.60;;;9.40;99.90;;;;;;4989471;28;20050;-87
2021/03/19 06:22:17;;;;;;;17.73;7.20;;;9.40;99.90;;;;;;4995122;28;20050;-88
2021/03/19 06:25:03;;;;;;;17.52;7.28;;;9.40;99.90;;;;;;4992485;28;20042;-88
2021/03/19 06:27:36;;;;;;;19.63;6.95;;;9.50;99.90;;;;;;4998062;28;20046;-88
2021/03/19 06:30:20;;;;;;;19.17;8.05;;;9.50;99.90;;;;;;4996663;28;20042;-88
2021/03/19 06:33:11;;;;;;;18.35;6.90;;;9.50;99.90;;;;;;5001532;28;20052;-88
2021/03/19 06:35:45;;;;;;;16.38;7.43;;;9.60;99.90;;;;;;4999424;28;20046;-89
2021/03/19 06:38:39;;;;;;;15.73;7.07;;;9.60;99.90;;;;;;4999609;28;20049;-88
2021/03/19 06:41:20;;;;;;;14.93;7.32;;;9.70;99.90;;;;;;4996296;28;20057;-88
2021/03/19 06:43:48;;;;;;;17.25;7.40;;;9.70;99.90;;;;;;4983217;28;20086;-89
2021/03/19 06:46:36;;;;;;;17.27;6.93;;;9.80;99.90;;;;;;4990481;28;20042;-88
2021/03/19 06:49:06;;;;;;;22.33;7.72;;;9.80;99.90;;;;;;4994751;28;20125;-88
2021/03/19 06:51:42;;;;;;;16.85;7.18;;;9.80;99.90;;;;;;4989470;28;20479;-89
2021/03/19 06:54:38;;;;;;;13.95;6.63;;;9.90;99.90;;;;;;4993166;28;20052;-88
2021/03/19 06:57:09;;;;;;;16.67;7.35;;;9.90;99.90;;;;;;4985151;28;20050;-89
2021/03/19 06:59:57;;;;;;;14.02;6.03;;;10.00;99.90;;;;;;4991896;28;20057;-89
2021/03/19 07:02:44;;;;;;;12.30;6.30;;;10.00;99.90;;;;;;4987077;28;20129;-89
2021/03/19 07:05:45;;;;;;;14.65;6.47;;;10.00;99.90;;;;;;4997839;28;20042;-88
2021/03/19 07:08:40;;;;;;;12.80;7.15;;;10.10;99.90;;;;;;4991542;28;20037;-88
2021/03/19 07:11:28;;;;;;;15.85;7.15;;;10.00;99.90;;;;;;5006472;28;20042;-89
2021/03/19 07:14:32;;;;;;;11.27;5.88;;;10.10;99.90;;;;;;5006630;28;20502;-88
2021/03/19 07:17:18;;;;;;;13.98;6.55;;;10.10;99.90;;;;;;5000345;28;20073;-88
2021/03/19 07:19:53;;;;;;;12.07;5.90;;;10.10;99.90;;;;;;5022483;28;20054;-88
2021/03/19 07:22:51;;;;;;;11.30;5.78;;;10.10;99.90;;;;;;5004942;28;20431;-89
2021/03/19 07:25:36;;;;;;;12.18;5.60;;;10.20;99.90;;;;;;5013005;28;20042;-88
2021/03/19 07:28:25;;;;;;;12.18;5.45;;;10.20;99.90;;;;;;5007050;28;20054;-88
2021/03/19 07:31:20;;;;;;;11.63;5.10;;;10.20;99.90;;;;;;5023321;28;20054;-88
2021/03/19 07:33:54;;;;;;;9.20;4.82;;;10.30;99.90;;;;;;5007242;28;20080;-88
2021/03/19 07:36:31;;;;;;;9.10;5.57;;;10.20;99.90;;;;;;5011160;28;20033;-87
2021/03/19 07:39:10;;;;;;;10.90;4.93;;;10.30;99.90;;;;;;5004930;28;20141;-88
2021/03/19 07:41:48;;;;;;;10.23;5.30;;;10.30;99.90;;;;;;5005649;28;20069;-88
2021/03/19 07:44:18;;;;;;;;;;;10.30;99.90;;;;;;5008557;28;20056;-88
2021/03/19 07:47:18;;;;;;;11.40;5.25;;;10.30;99.90;;;;;;5008200;28;19929;-88
2021/03/19 07:49:51;;;;;;;10.07;5.43;;;10.40;99.90;;;;;;5013887;28;20065;-87
2021/03/19 07:52:46;;;;;;;11.32;5.32;;;10.40;99.90;;;;;;5016192;28;20045;-88
2021/03/19 07:55:47;;;;;;;12.57;5.07;;;10.40;99.90;;;;;;5010378;28;20068;-87
2021/03/19 07:58:23;;;;;;;9.05;5.15;;;10.40;99.90;;;;;;5009115;28;20049;-87
2021/03/19 08:01:02;;;;;;;10.18;5.03;;;10.40;99.90;;;;;;5010172;28;20492;-87
2021/03/19 08:03:32;;;;;;;10.30;5.03;;;10.40;99.90;;;;;;5008567;28;20042;-87
2021/03/19 08:06:05;;;;;;;8.13;5.30;;;10.30;99.90;;;;;;5010253;28;20042;-87
2021/03/19 08:09:06;;;;;;;10.00;6.00;;;10.30;99.90;;;;;;5006245;28;20129;-87
2021/03/19 08:11:45;;;;;;;11.65;5.40;;;10.40;99.90;;;;;;5003821;28;20387;-87
2021/03/19 08:14:49;;;;;;;8.40;5.72;;;10.40;99.90;;;;;;4998300;28;20045;-87
2021/03/19 08:17:33;;;;;;;13.00;6.07;;;10.40;99.90;;;;;;5001049;28;20088;-88
2021/03/19 08:20:26;;;;;;;9.52;6.28;;;10.40;99.90;;;;;;4996992;28;20113;-87
2021/03/19 08:23:03;;;;;;;11.25;7.45;;;10.40;99.90;;;;;;4989208;28;20044;-87
2021/03/19 08:25:42;;;;;;;10.65;7.15;;;10.30;99.90;;;;;;5007159;28;20095;-87
2021/03/19 08:28:36;;;;;;;11.38;8.00;;;10.40;99.90;;;;;;4992690;28;20057;-88
2021/03/19 08:31:22;;;;;;;12.00;8.50;;;10.30;99.90;;;;;;4997427;28;20045;-87
2021/03/19 08:33:55;;;;;;;12.55;8.23;;;10.30;99.90;;;;;;5014880;28;20096;-87
2021/03/19 08:36:44;;;;;;;12.32;8.07;;;10.30;99.90;;;;;;5006137;28;20056;-88
2021/03/19 08:39:41;;;;;;;13.90;9.00;;;10.30;99.90;;;;;;4999842;28;20054;-88
2021/03/19 08:42:14;;;;;;;14.32;9.40;;;10.30;99.90;;;;;;4993201;28;20052;-88
2021/03/19 08:44:41;;;;;;;13.73;8.75;;;10.30;99.90;;;;;;5014934;28;20042;-87
2021/03/19 08:47:22;;;;;;;13.45;8.85;;;10.40;99.90;;;;;;4995680;28;20499;-87
2021/03/19 08:49:55;;;;;;;14.43;8.68;;;10.40;99.90;;;;;;4978515;28;20064;-87
2021/03/19 08:52:22;;;;;;;14.18;9.13;;;10.40;99.90;;;;;;4991525;28;20049;-88
2021/03/19 08:55:17;;;;;;;12.45;9.45;;;10.40;99.90;;;;;;4984574;28;20050;-87
2021/03/19 08:57:45;;;;;;;19.60;9.57;;;10.50;99.90;;;;;;4998868;28;20052;-87
2021/03/19 09:00:21;;;;;;;15.20;9.73;;;10.50;99.90;;;;;;4993116;28;20050;-87
2021/03/19 09:02:58;;;;;;;14.40;8.90;;;10.50;99.90;;;;;;5000287;28;20050;-88
2021/03/19 09:05:37;;;;;;;12.48;8.30;;;10.50;99.90;;;;;;4990030;28;20174;-87
2021/03/19 09:08:24;;;;;;;13.10;7.90;;;10.50;99.90;;;;;;4998291;28;20046;-87
2021/03/19 09:10:53;;;;;;;10.80;7.93;;;10.50;99.90;;;;;;4997455;28;20058;-87
2021/03/19 09:13:22;;;;;;;15.00;8.15;;;10.50;99.90;;;;;;5024624;28;20085;-87
2021/03/19 09:15:54;;;;;;;10.98;8.02;;;10.50;99.90;;;;;;5029547;28;20046;-87
2021/03/19 09:18:49;;;;;;;12.70;8.32;;;10.60;99.90;;;;;;5003763;28;20077;-88
2021/03/19 09:21:32;;;;;;;10.60;7.82;;;10.50;99.90;;;;;;4997579;28;20053;-87
2021/03/19 09:24:04;;;;;;;12.90;7.63;;;10.60;99.90;;;;;;5001611;28;20044;-88
2021/03/19 09:26:42;;;;;;;10.52;7.45;;;10.60;99.90;;;;;;5010021;28;20149;-87
2021/03/19 09:29:15;;;;;;;8.43;6.35;;;10.60;99.90;;;;;;5015425;28;20050;-88
2021/03/19 09:31:53;;;;;;;8.77;6.40;;;10.70;99.90;;;;;;4995574;28;20172;-87
2021/03/19 09:34:46;;;;;;;9.90;6.57;;;10.80;99.90;;;;;;5008465;28;20047;-87
2021/03/19 09:37:32;;;;;;;8.48;6.75;;;10.80;99.90;;;;;;5003631;28;20046;-87
2021/03/19 09:40:14;;;;;;;9.82;5.53;;;10.80;99.90;;;;;;5001874;28;20043;-88
2021/03/19 09:42:40;;;;;;;7.90;5.47;;;10.80;99.90;;;;;;5012911;28;20479;-88
2021/03/19 09:45:07;;;;;;;8.10;6.57;;;10.80;99.90;;;;;;5012282;28;20042;-88
2021/03/19 09:47:44;;;;;;;8.65;5.63;;;10.80;99.90;;;;;;5012664;28;20046;-86
2021/03/19 09:50:15;;;;;;;10.00;6.00;;;10.80;99.90;;;;;;5009753;28;20089;-87
2021/03/19 09:52:57;;;;;;;9.98;5.47;;;10.80;99.90;;;;;;4995707;28;20037;-87
2021/03/19 09:55:35;;;;;;;7.93;5.43;;;10.80;99.90;;;;;;5009404;28;20446;-88
2021/03/19 09:58:11;;;;;;;7.53;4.63;;;10.70;99.90;;;;;;5014901;28;20054;-87
2021/03/19 10:00:45;;;;;;;8.85;4.15;;;10.70;99.90;;;;;;5012300;28;20053;-87
2021/03/19 10:03:12;;;;;;;6.07;3.40;;;10.60;99.90;;;;;;5008005;28;20076;-87
2021/03/19 10:05:43;;;;;;;6.32;3.05;;;10.60;99.90;;;;;;5013420;28;20042;-87
2021/03/19 10:08:24;;;;;;;7.03;3.22;;;10.50;99.90;;;;;;5009467;28;20042;-87
2021/03/19 10:10:51;;;;;;;4.00;2.45;;;10.40;99.90;;;;;;4986930;28;20054;-87
2021/03/19 10:13:23;;;;;;;5.03;2.75;;;10.40;99.90;;;;;;4995202;28;20042;-88
2021/03/19 10:15:53;;;;;;;2.88;1.90;;;10.40;99.90;;;;;;4998020;28;20073;-87
2021/03/19 10:18:31;;;;;;;4.15;1.90;;;10.30;99.90;;;;;;4995874;28;20435;-87
2021/03/19 10:21:06;;;;;;;4.03;2.10;;;10.30;99.90;;;;;;5006581;28;20071;-86
2021/03/19 10:23:35;;;;;;;5.53;2.08;;;10.30;99.90;;;;;;4993073;28;20045;-87
2021/03/19 10:26:09;;;;;;;3.22;1.70;;;10.40;99.90;;;;;;5001051;28;20038;-87
2021/03/19 10:28:38;;;;;;;2.60;1.52;;;10.50;99.90;;;;;;5000109;28;20046;-87
2021/03/19 10:31:15;;;;;;;3.63;1.70;;;10.50;99.90;;;;;;5000404;28;20443;-87
2021/03/19 10:33:58;;;;;;;2.60;1.50;;;10.60;99.90;;;;;;5012073;28;20042;-87
2021/03/19 10:36:43;;;;;;;4.03;1.15;;;10.60;99.90;;;;;;4995709;28;20050;-87
2021/03/19 10:39:38;;;;;;;4.95;1.50;;;10.60;99.90;;;;;;4995193;28;20049;-88
2021/03/19 10:42:08;;;;;;;2.42;1.08;;;10.70;99.90;;;;;;4987579;28;20054;-88
2021/03/19 10:44:54;;;;;;;2.35;1.15;;;10.80;99.90;;;;;;4985647;28;20057;-87
2021/03/19 10:47:35;;;;;;;3.17;1.30;;;10.90;99.90;;;;;;4995169;28;20133;-87
2021/03/19 10:50:12;;;;;;;9.23;1.30;;;11.00;99.90;;;;;;4993248;28;20096;-88
2021/03/19 10:52:46;;;;;;;4.57;1.10;;;11.00;99.90;;;;;;4989923;28;20369;-87
2021/03/19 10:55:17;;;;;;;3.60;0.95;;;11.00;99.90;;;;;;4994858;28;20048;-88
2021/03/19 10:57:44;;;;;;;2.13;1.00;;;11.00;99.90;;;;;;4989335;28;20050;-87
2021/03/19 11:00:30;;;;;;;1.90;0.68;;;11.10;99.90;;;;;;5007076;28;20049;-88
2021/03/19 11:03:00;;;;;;;2.60;0.85;;;11.20;99.90;;;;;;4991065;28;20046;-87
2021/03/19 11:05:28;;;;;;;3.13;0.70;;;11.20;99.90;;;;;;4994608;28;20044;-87
2021/03/19 11:07:55;;;;;;;2.05;0.70;;;11.30;99.90;;;;;;4992972;28;20053;-87
2021/03/19 11:10:37;;;;;;;1.92;0.55;;;11.30;99.90;;;;;;4992830;28;20062;-87
2021/03/19 11:13:13;;;;;;;3.58;0.90;;;11.30;99.90;;;;;;5018299;28;20127;-87
2021/03/19 11:15:50;;;;;;;4.13;0.75;;;11.20;99.90;;;;;;4996732;28;20037;-88
2021/03/19 11:18:39;;;;;;;3.55;0.70;;;11.20;99.90;;;;;;4992439;28;20043;-88
2021/03/19 11:21:09;;;;;;;1.30;0.50;;;11.10;99.90;;;;;;5005224;28;20142;-87
2021/03/19 11:23:36;;;;;;;1.33;0.68;;;11.10;99.90;;;;;;4997714;28;20558;-87
2021/03/19 11:26:19;;;;;;;2.03;0.82;;;11.10;99.90;;;;;;4994935;28;20054;-87
2021/03/19 11:29:05;;;;;;;1.33;0.40;;;11.20;99.90;;;;;;4982859;28;20043;-87
2021/03/19 11:31:33;;;;;;;2.60;0.50;;;11.30;99.90;;;;;;4995217;28;20057;-87
2021/03/19 11:34:28;;;;;;;2.90;0.70;;;11.30;99.90;;;;;;4985944;28;20054;-87
2021/03/19 11:37:06;;;;;;;2.20;0.70;;;11.50;99.90;;;;;;5005408;28;20054;-87
2021/03/19 11:39:39;;;;;;;1.95;0.52;;;11.50;99.90;;;;;;4995749;28;20368;-87
2021/03/19 11:42:10;;;;;;;2.35;0.40;;;11.60;99.90;;;;;;4991447;28;20152;-88
2021/03/19 11:44:37;;;;;;;2.00;0.40;;;11.50;99.90;;;;;;4998042;28;20045;-87
2021/03/19 11:47:12;;;;;;;0.95;0.60;;;11.60;99.90;;;;;;4996592;28;20061;-87
2021/03/19 11:49:40;;;;;;;0.90;0.60;;;11.70;99.90;;;;;;5013446;28;20046;-88
2021/03/19 11:52:10;;;;;;;0.93;0.50;;;11.70;99.90;;;;;;5005840;28;20399;-87
2021/03/19 11:54:37;;;;;;;2.60;0.63;;;11.90;99.90;;;;;;5007855;28;20042;-87
2021/03/19 11:57:06;;;;;;;3.25;0.60;;;12.00;99.90;;;;;;5005963;28;20079;-88
2021/03/19 11:59:33;;;;;;;2.45;0.50;;;12.10;99.90;;;;;;4997275;28;20112;-88
2021/03/19 12:02:05;;;;;;;5.70;0.77;;;12.00;99.90;;;;;;4990158;28;20115;-87
2021/03/19 12:04:32;;;;;;;7.78;0.90;;;12.10;99.90;;;;;;4993348;28;20127;-88
2021/03/19 12:07:00;;;;;;;1.42;0.40;;;12.10;99.90;;;;;;4997881;28;20068;-88
2021/03/19 12:09:28;;;;;;;2.17;0.50;;;12.20;99.90;;;;;;4991258;28;20038;-87
2021/03/19 12:11:55;;;;;;;2.08;0.50;;;12.10;99.90;;;;;;5009921;28;20053;-87
2021/03/19 12:14:25;;;;;;;2.92;0.80;;;12.10;99.90;;;;;;5011275;28;20041;-87
2021/03/19 12:16:52;;;;;;;2.30;0.65;;;12.10;99.90;;;;;;5011506;28;20041;-87
2021/03/19 12:19:21;;;;;;;3.80;0.60;;;12.10;99.90;;;;;;5013408;28;20041;-87
2021/03/19 12:21:48;;;;;;;1.27;0.60;;;12.10;99.90;;;;;;5013068;28;20424;-87
2021/03/19 12:24:18;;;;;;;2.22;0.80;;;12.10;99.90;;;;;;5023413;28;20128;-88
2021/03/19 12:26:44;;;;;;;2.55;0.88;;;12.10;99.90;;;;;;4999236;28;20053;-87
2021/03/19 12:29:12;;;;;;;4.53;0.60;;;12.10;99.90;;;;;;5010505;28;20049;-87
2021/03/19 12:31:40;;;;;;;1.90;0.90;;;12.00;99.90;;;;;;5011935;28;20041;-88
2021/03/19 12:34:08;;;;;;;2.45;1.02;;;12.00;99.90;;;;;;5013113;28;20095;-87
2021/03/19 12:36:35;;;;;;;2.60;0.90;;;12.00;99.90;;;;;;5010497;28;20046;-88
2021/03/19 12:39:04;;;;;;;4.78;1.50;;;12.00;99.90;;;;;;5001479;28;20096;-88
2021/03/19 12:41:35;;;;;;;2.35;0.60;;;12.00;99.90;;;;;;5009592;28;20049;-88
2021/03/19 12:44:02;;;;;;;2.35;0.70;;;12.00;99.90;;;;;;5002896;28;20043;-88
2021/03/19 12:46:29;;;;;;;2.45;0.70;;;11.90;99.90;;;;;;5020392;28;20045;-87
2021/03/19 12:48:56;;;;;;;2.88;1.00;;;12.00;99.90;;;;;;5016042;28;20406;-87
2021/03/19 12:51:23;;;;;;;1.88;0.70;;;11.90;99.90;;;;;;5011869;28;20120;-87
2021/03/19 12:53:50;;;;;;;3.83;0.70;;;11.80;99.90;;;;;;5015545;28;20041;-88
2021/03/19 12:56:17;;;;;;;4.63;0.70;;;11.70;99.90;;;;;;5012345;28;20059;-88
2021/03/19 12:58:45;;;;;;;4.18;1.08;;;11.70;99.90;;;;;;5023645;28;20044;-87
2021/03/19 13:01:12;;;;;;;4.10;1.10;;;11.70;99.90;;;;;;5032447;28;20048;-88
2021/03/19 13:03:39;;;;;;;3.38;0.90;;;11.60;99.90;;;;;;5021679;28;20052;-87
2021/03/19 13:06:06;;;;;;;3.30;1.27;;;11.60;99.90;;;;;;5020017;28;20049;-87
2021/03/19 13:08:33;;;;;;;3.65;1.10;;;11.60;99.90;;;;;;5014683;28;20426;-87
2021/03/19 13:11:00;;;;;;;4.13;0.98;;;11.70;99.90;;;;;;5006945;28;20039;-88
2021/03/19 13:13:27;;;;;;;4.00;0.90;;;11.70;99.90;;;;;;4994100;28;20042;-87
2021/03/19 13:15:53;;;;;;;4.43;0.90;;;11.80;99.90;;;;;;4998248;28;20046;-87
2021/03/19 13:18:21;;;;;;;2.17;0.63;;;12.00;99.90;;;;;;4998225;28;20046;-88
2021/03/19 13:20:49;;;;;;;1.50;0.77;;;12.10;99.90;;;;;;4991198;28;20089;-87
2021/03/19 13:23:16;;;;;;;1.75;0.70;;;12.10;99.90;;;;;;5000791;28;20065;-87